sensor_id;sensor_type;location;lat;lon;timestamp;P1;durP1;ratioP1;P2;durP2;ratioP2
12218;SDS011;6172;42.646;23.344;2022-08-01T00:01:55;2.50;;;1.33;;
12218;SDS011;6172;42.646;23.344;2022-08-01T00:04:22;1.42;;;1.30;;
12218;SDS011;6172;42.646;23.344;2022-08-01T00:06:49;1.30;;;1.20;;
12218;SDS011;6172;42.646;23.344;2022-08-01T00:09:16;4.03;;;1.30;;
12218;SDS011;6172;42.646;23.344;2022-08-01T00:11:42;1.35;;;1.10;;
12218;SDS011;6172;42.646;23.344;2022-08-01T00:14:10;1.98;;;1.02;;
12218;SDS011;6172;42.646;23.344;2022-08-01T00:16:36;2.22;;;1.10;;
12218;SDS011;6172;42.646;23.344;2022-08-01T00:19:05;2.10;;;0.82;;
12218;SDS011;6172;42.646;23.344;2022-08-01T00:21:32;0.90;;;0.90;;
12218;SDS011;6172;42.646;23.344;2022-08-01T00:23:59;0.88;;;0.80;;
12218;SDS011;6172;42.646;23.344;2022-08-01T00:26:25;1.08;;;0.90;;
12218;SDS011;6172;42.646;23.344;2022-08-01T00:28:52;0.93;;;0.93;;
12218;SDS011;6172;42.646;23.344;2022-08-01T00:31:19;1.05;;;0.85;;
12218;SDS011;6172;42.646;23.344;2022-08-01T00:33:46;1.13;;;0.85;;
12218;SDS011;6172;42.646;23.344;2022-08-01T00:36:15;0.77;;;0.77;;
12218;SDS011;6172;42.646;23.344;2022-08-01T00:38:41;0.80;;;0.77;;
12218;SDS011;6172;42.646;23.344;2022-08-01T00:41:08;1.02;;;0.90;;
12218;SDS011;6172;42.646;23.344;2022-08-01T00:43:35;1.75;;;0.80;;
12218;SDS011;6172;42.646;23.344;2022-08-01T00:46:02;1.92;;;1.10;;
12218;SDS011;6172;42.646;23.344;2022-08-01T00:48:29;1.33;;;0.95;;
12218;SDS011;6172;42.646;23.344;2022-08-01T00:50:56;1.40;;;0.90;;
12218;SDS011;6172;42.646;23.344;2022-08-01T00:53:24;1.95;;;1.30;;
12218;SDS011;6172;42.646;23.344;2022-08-01T00:55:51;1.63;;;1.52;;
12218;SDS011;6172;42.646;23.344;2022-08-01T00:58:19;3.78;;;2.30;;
12218;SDS011;6172;42.646;23.344;2022-08-01T01:00:46;2.75;;;2.30;;
12218;SDS011;6172;42.646;23.344;2022-08-01T01:03:13;2.20;;;2.10;;
12218;SDS011;6172;42.646;23.344;2022-08-01T01:05:42;4.32;;;2.53;;
12218;SDS011;6172;42.646;23.344;2022-08-01T01:08:19;2.67;;;2.50;;
12218;SDS011;6172;42.646;23.344;2022-08-01T01:10:54;3.17;;;2.53;;
12218;SDS011;6172;42.646;23.344;2022-08-01T01:13:26;2.42;;;2.33;;
12218;SDS011;6172;42.646;23.344;2022-08-01T01:15:59;2.60;;;2.40;;
12218;SDS011;6172;42.646;23.344;2022-08-01T01:18:29;2.40;;;2.20;;
12218;SDS011;6172;42.646;23.344;2022-08-01T01:21:02;2.42;;;2.28;;
12218;SDS011;6172;42.646;23.344;2022-08-01T01:23:44;2.63;;;2.50;;
12218;SDS011;6172;42.646;23.344;2022-08-01T01:26:31;2.67;;;2.47;;
12218;SDS011;6172;42.646;23.344;2022-08-01T01:29:08;2.47;;;2.00;;
12218;SDS011;6172;42.646;23.344;2022-08-01T01:31:42;3.83;;;2.10;;
12218;SDS011;6172;42.646;23.344;2022-08-01T01:34:13;1.92;;;1.83;;
12218;SDS011;6172;42.646;23.344;2022-08-01T01:36:41;2.10;;;2.00;;
12218;SDS011;6172;42.646;23.344;2022-08-01T01:39:10;1.75;;;1.65;;
12218;SDS011;6172;42.646;23.344;2022-08-01T01:41:39;1.88;;;1.67;;
12218;SDS011;6172;42.646;23.344;2022-08-01T01:44:08;2.78;;;1.70;;
12218;SDS011;6172;42.646;23.344;2022-08-01T01:46:36;3.20;;;2.08;;
12218;SDS011;6172;42.646;23.344;2022-08-01T01:49:04;3.03;;;1.80;;
12218;SDS011;6172;42.646;23.344;2022-08-01T01:51:36;2.63;;;1.73;;
12218;SDS011;6172;42.646;23.344;2022-08-01T01:54:04;2.20;;;1.70;;
12218;SDS011;6172;42.646;23.344;2022-08-01T01:56:33;3.15;;;1.42;;
12218;SDS011;6172;42.646;23.344;2022-08-01T01:59:15;2.28;;;1.30;;
12218;SDS011;6172;42.646;23.344;2022-08-01T02:01:46;1.88;;;1.30;;
12218;SDS011;6172;42.646;23.344;2022-08-01T02:04:14;3.28;;;0.85;;
12218;SDS011;6172;42.646;23.344;2022-08-01T02:06:42;0.70;;;0.70;;
12218;SDS011;6172;42.646;23.344;2022-08-01T02:09:10;1.95;;;0.70;;
12218;SDS011;6172;42.646;23.344;2022-08-01T02:11:37;0.93;;;0.70;;
12218;SDS011;6172;42.646;23.344;2022-08-01T02:14:06;1.75;;;0.90;;
12218;SDS011;6172;42.646;23.344;2022-08-01T02:16:37;1.20;;;0.82;;
12218;SDS011;6172;42.646;23.344;2022-08-01T02:19:07;2.10;;;1.30;;
12218;SDS011;6172;42.646;23.344;2022-08-01T02:21:37;2.58;;;0.75;;
12218;SDS011;6172;42.646;23.344;2022-08-01T02:24:09;1.55;;;0.90;;
12218;SDS011;6172;42.646;23.344;2022-08-01T02:26:41;1.92;;;0.95;;
12218;SDS011;6172;42.646;23.344;2022-08-01T02:29:13;2.03;;;0.80;;
12218;SDS011;6172;42.646;23.344;2022-08-01T02:31:44;1.58;;;0.75;;
12218;SDS011;6172;42.646;23.344;2022-08-01T02:34:14;2.60;;;0.80;;
12218;SDS011;6172;42.646;23.344;2022-08-01T02:36:45;2.05;;;1.13;;
12218;SDS011;6172;42.646;23.344;2022-08-01T02:39:14;3.45;;;0.95;;
12218;SDS011;6172;42.646;23.344;2022-08-01T02:41:47;1.08;;;0.80;;
12218;SDS011;6172;42.646;23.344;2022-08-01T02:44:17;1.83;;;0.75;;
12218;SDS011;6172;42.646;23.344;2022-08-01T02:46:51;1.60;;;1.00;;
12218;SDS011;6172;42.646;23.344;2022-08-01T02:49:22;1.60;;;1.50;;
12218;SDS011;6172;42.646;23.344;2022-08-01T02:51:52;3.90;;;2.03;;
12218;SDS011;6172;42.646;23.344;2022-08-01T02:54:21;2.67;;;2.00;;
12218;SDS011;6172;42.646;23.344;2022-08-01T02:56:50;3.03;;;2.17;;
12218;SDS011;6172;42.646;23.344;2022-08-01T02:59:19;3.27;;;1.70;;
12218;SDS011;6172;42.646;23.344;2022-08-01T03:01:52;2.05;;;1.77;;
12218;SDS011;6172;42.646;23.344;2022-08-01T03:04:21;2.58;;;1.48;;
12218;SDS011;6172;42.646;23.344;2022-08-01T03:06:49;1.70;;;1.60;;
12218;SDS011;6172;42.646;23.344;2022-08-01T03:09:18;2.03;;;1.93;;
12218;SDS011;6172;42.646;23.344;2022-08-01T03:11:46;2.28;;;1.75;;
12218;SDS011;6172;42.646;23.344;2022-08-01T03:14:18;7.73;;;1.50;;
12218;SDS011;6172;42.646;23.344;2022-08-01T03:16:48;3.00;;;1.87;;
12218;SDS011;6172;42.646;23.344;2022-08-01T03:19:18;4.17;;;1.60;;
12218;SDS011;6172;42.646;23.344;2022-08-01T03:21:46;2.90;;;1.50;;
12218;SDS011;6172;42.646;23.344;2022-08-01T03:24:15;1.60;;;1.50;;
12218;SDS011;6172;42.646;23.344;2022-08-01T03:26:44;3.53;;;1.57;;
12218;SDS011;6172;42.646;23.344;2022-08-01T03:29:15;1.67;;;1.53;;
12218;SDS011;6172;42.646;23.344;2022-08-01T03:31:46;3.27;;;2.10;;
12218;SDS011;6172;42.646;23.344;2022-08-01T03:34:15;5.47;;;2.30;;
12218;SDS011;6172;42.646;23.344;2022-08-01T03:36:46;2.47;;;1.87;;
12218;SDS011;6172;42.646;23.344;2022-08-01T03:39:16;3.03;;;1.67;;
12218;SDS011;6172;42.646;23.344;2022-08-01T03:41:46;3.40;;;2.23;;
12218;SDS011;6172;42.646;23.344;2022-08-01T03:44:24;6.23;;;2.10;;
12218;SDS011;6172;42.646;23.344;2022-08-01T03:46:58;4.10;;;2.10;;
12218;SDS011;6172;42.646;23.344;2022-08-01T03:49:30;6.20;;;3.07;;
12218;SDS011;6172;42.646;23.344;2022-08-01T03:52:00;4.13;;;2.53;;
12218;SDS011;6172;42.646;23.344;2022-08-01T03:54:30;3.13;;;2.83;;
12218;SDS011;6172;42.646;23.344;2022-08-01T03:56:59;2.73;;;2.53;;
12218;SDS011;6172;42.646;23.344;2022-08-01T03:59:28;5.23;;;3.20;;
12218;SDS011;6172;42.646;23.344;2022-08-01T04:01:56;4.00;;;3.03;;
12218;SDS011;6172;42.646;23.344;2022-08-01T04:04:24;3.33;;;2.73;;
12218;SDS011;6172;42.646;23.344;2022-08-01T04:06:52;2.97;;;2.67;;
12218;SDS011;6172;42.646;23.344;2022-08-01T04:09:21;7.87;;;3.27;;
12218;SDS011;6172;42.646;23.344;2022-08-01T04:11:48;3.50;;;2.90;;
12218;SDS011;6172;42.646;23.344;2022-08-01T04:14:15;3.30;;;3.00;;
12218;SDS011;6172;42.646;23.344;2022-08-01T04:16:42;6.93;;;2.80;;
12218;SDS011;6172;42.646;23.344;2022-08-01T04:19:09;3.80;;;3.20;;
12218;SDS011;6172;42.646;23.344;2022-08-01T04:21:36;8.10;;;2.87;;
12218;SDS011;6172;42.646;23.344;2022-08-01T04:24:23;4.40;;;3.00;;
12218;SDS011;6172;42.646;23.344;2022-08-01T04:26:52;6.23;;;3.10;;
12218;SDS011;6172;42.646;23.344;2022-08-01T04:29:20;7.23;;;3.13;;
12218;SDS011;6172;42.646;23.344;2022-08-01T04:31:49;5.93;;;2.70;;
12218;SDS011;6172;42.646;23.344;2022-08-01T04:34:21;3.57;;;2.90;;
12218;SDS011;6172;42.646;23.344;2022-08-01T04:36:50;2.90;;;2.60;;
12218;SDS011;6172;42.646;23.344;2022-08-01T04:39:18;4.47;;;3.13;;
12218;SDS011;6172;42.646;23.344;2022-08-01T04:41:48;5.77;;;3.80;;
12218;SDS011;6172;42.646;23.344;2022-08-01T04:44:15;5.60;;;3.40;;
12218;SDS011;6172;42.646;23.344;2022-08-01T04:46:42;6.07;;;3.40;;
12218;SDS011;6172;42.646;23.344;2022-08-01T04:49:10;5.53;;;3.50;;
12218;SDS011;6172;42.646;23.344;2022-08-01T04:51:49;6.60;;;3.15;;
12218;SDS011;6172;42.646;23.344;2022-08-01T04:54:17;7.57;;;2.85;;
12218;SDS011;6172;42.646;23.344;2022-08-01T04:56:47;8.38;;;3.50;;
12218;SDS011;6172;42.646;23.344;2022-08-01T04:59:14;3.90;;;2.72;;
12218;SDS011;6172;42.646;23.344;2022-08-01T05:01:59;2.88;;;2.67;;
12218;SDS011;6172;42.646;23.344;2022-08-01T05:04:25;5.47;;;2.65;;
12218;SDS011;6172;42.646;23.344;2022-08-01T05:06:52;4.10;;;2.47;;
12218;SDS011;6172;42.646;23.344;2022-08-01T05:09:19;8.18;;;3.00;;
12218;SDS011;6172;42.646;23.344;2022-08-01T05:11:47;5.18;;;3.05;;
12218;SDS011;6172;42.646;23.344;2022-08-01T05:14:14;5.28;;;2.95;;
12218;SDS011;6172;42.646;23.344;2022-08-01T05:16:41;3.72;;;2.80;;
12218;SDS011;6172;42.646;23.344;2022-08-01T05:19:08;3.92;;;2.90;;
12218;SDS011;6172;42.646;23.344;2022-08-01T05:21:35;5.78;;;2.78;;
12218;SDS011;6172;42.646;23.344;2022-08-01T05:24:03;4.18;;;2.75;;
12218;SDS011;6172;42.646;23.344;2022-08-01T05:26:30;4.38;;;3.05;;
12218;SDS011;6172;42.646;23.344;2022-08-01T05:28:58;6.05;;;2.92;;
12218;SDS011;6172;42.646;23.344;2022-08-01T05:31:25;5.15;;;2.50;;
12218;SDS011;6172;42.646;23.344;2022-08-01T05:33:52;4.35;;;2.53;;
12218;SDS011;6172;42.646;23.344;2022-08-01T05:36:19;6.05;;;2.72;;
12218;SDS011;6172;42.646;23.344;2022-08-01T05:38:45;4.38;;;2.45;;
12218;SDS011;6172;42.646;23.344;2022-08-01T05:41:12;2.72;;;2.15;;
12218;SDS011;6172;42.646;23.344;2022-08-01T05:43:39;5.03;;;2.28;;
12218;SDS011;6172;42.646;23.344;2022-08-01T05:46:07;2.75;;;1.63;;
12218;SDS011;6172;42.646;23.344;2022-08-01T05:48:34;4.95;;;2.63;;
12218;SDS011;6172;42.646;23.344;2022-08-01T05:51:01;4.18;;;2.13;;
12218;SDS011;6172;42.646;23.344;2022-08-01T05:53:28;4.22;;;2.67;;
12218;SDS011;6172;42.646;23.344;2022-08-01T05:55:55;3.88;;;2.20;;
12218;SDS011;6172;42.646;23.344;2022-08-01T05:58:22;2.63;;;1.92;;
12218;SDS011;6172;42.646;23.344;2022-08-01T06:00:49;2.85;;;1.55;;
12218;SDS011;6172;42.646;23.344;2022-08-01T06:03:17;1.48;;;1.38;;
12218;SDS011;6172;42.646;23.344;2022-08-01T06:05:44;4.32;;;1.05;;
12218;SDS011;6172;42.646;23.344;2022-08-01T06:08:11;1.75;;;1.38;;
12218;SDS011;6172;42.646;23.344;2022-08-01T06:10:38;2.80;;;1.05;;
12218;SDS011;6172;42.646;23.344;2022-08-01T06:13:05;1.33;;;1.00;;
12218;SDS011;6172;42.646;23.344;2022-08-01T06:15:32;1.42;;;0.82;;
12218;SDS011;6172;42.646;23.344;2022-08-01T06:17:59;1.65;;;0.88;;
12218;SDS011;6172;42.646;23.344;2022-08-01T06:20:27;1.27;;;1.10;;
12218;SDS011;6172;42.646;23.344;2022-08-01T06:22:54;1.48;;;0.70;;
12218;SDS011;6172;42.646;23.344;2022-08-01T06:25:21;3.33;;;1.15;;
12218;SDS011;6172;42.646;23.344;2022-08-01T06:27:48;1.02;;;0.88;;
12218;SDS011;6172;42.646;23.344;2022-08-01T06:30:15;2.63;;;1.20;;
12218;SDS011;6172;42.646;23.344;2022-08-01T06:32:42;2.30;;;0.93;;
12218;SDS011;6172;42.646;23.344;2022-08-01T06:35:08;2.83;;;0.90;;
12218;SDS011;6172;42.646;23.344;2022-08-01T06:37:37;2.47;;;1.10;;
12218;SDS011;6172;42.646;23.344;2022-08-01T06:40:04;1.00;;;0.70;;
12218;SDS011;6172;42.646;23.344;2022-08-01T06:42:32;1.02;;;0.82;;
12218;SDS011;6172;42.646;23.344;2022-08-01T06:45:01;5.22;;;1.05;;
12218;SDS011;6172;42.646;23.344;2022-08-01T06:47:28;4.30;;;0.95;;
12218;SDS011;6172;42.646;23.344;2022-08-01T06:49:55;2.80;;;1.15;;
12218;SDS011;6172;42.646;23.344;2022-08-01T06:52:21;1.08;;;0.88;;
12218;SDS011;6172;42.646;23.344;2022-08-01T06:54:50;1.30;;;1.20;;
12218;SDS011;6172;42.646;23.344;2022-08-01T06:57:17;1.42;;;1.02;;
12218;SDS011;6172;42.646;23.344;2022-08-01T06:59:44;2.47;;;1.05;;
12218;SDS011;6172;42.646;23.344;2022-08-01T07:02:11;8.05;;;1.30;;
12218;SDS011;6172;42.646;23.344;2022-08-01T07:04:40;1.42;;;1.00;;
12218;SDS011;6172;42.646;23.344;2022-08-01T07:07:07;3.20;;;1.02;;
12218;SDS011;6172;42.646;23.344;2022-08-01T07:09:34;2.67;;;1.25;;
12218;SDS011;6172;42.646;23.344;2022-08-01T07:12:02;4.00;;;1.33;;
12218;SDS011;6172;42.646;23.344;2022-08-01T07:14:29;1.20;;;1.10;;
12218;SDS011;6172;42.646;23.344;2022-08-01T07:16:56;2.63;;;1.10;;
12218;SDS011;6172;42.646;23.344;2022-08-01T07:19:23;1.85;;;1.27;;
12218;SDS011;6172;42.646;23.344;2022-08-01T07:21:50;2.25;;;1.70;;
12218;SDS011;6172;42.646;23.344;2022-08-01T07:24:16;3.20;;;1.20;;
12218;SDS011;6172;42.646;23.344;2022-08-01T07:26:44;1.58;;;1.30;;
12218;SDS011;6172;42.646;23.344;2022-08-01T07:29:14;1.75;;;1.30;;
12218;SDS011;6172;42.646;23.344;2022-08-01T07:31:41;2.53;;;1.42;;
12218;SDS011;6172;42.646;23.344;2022-08-01T07:34:08;1.33;;;1.20;;
12218;SDS011;6172;42.646;23.344;2022-08-01T07:36:35;3.10;;;1.42;;
12218;SDS011;6172;42.646;23.344;2022-08-01T07:39:02;3.28;;;1.20;;
12218;SDS011;6172;42.646;23.344;2022-08-01T07:41:29;2.42;;;1.42;;
12218;SDS011;6172;42.646;23.344;2022-08-01T07:43:56;2.22;;;1.17;;
12218;SDS011;6172;42.646;23.344;2022-08-01T07:46:24;1.33;;;1.23;;
12218;SDS011;6172;42.646;23.344;2022-08-01T07:48:51;6.07;;;1.30;;
12218;SDS011;6172;42.646;23.344;2022-08-01T07:51:18;3.08;;;1.70;;
12218;SDS011;6172;42.646;23.344;2022-08-01T07:53:45;3.88;;;1.63;;
12218;SDS011;6172;42.646;23.344;2022-08-01T07:56:11;4.10;;;1.67;;
12218;SDS011;6172;42.646;23.344;2022-08-01T07:58:38;2.72;;;1.55;;
12218;SDS011;6172;42.646;23.344;2022-08-01T08:01:05;6.70;;;1.60;;
12218;SDS011;6172;42.646;23.344;2022-08-01T08:03:33;2.00;;;1.50;;
12218;SDS011;6172;42.646;23.344;2022-08-01T08:06:00;2.25;;;1.08;;
12218;SDS011;6172;42.646;23.344;2022-08-01T08:08:27;1.45;;;1.35;;
12218;SDS011;6172;42.646;23.344;2022-08-01T08:10:54;2.95;;;1.10;;
12218;SDS011;6172;42.646;23.344;2022-08-01T08:13:21;2.97;;;1.30;;
12218;SDS011;6172;42.646;23.344;2022-08-01T08:15:48;1.60;;;1.52;;
12218;SDS011;6172;42.646;23.344;2022-08-01T08:18:14;1.58;;;1.48;;
12218;SDS011;6172;42.646;23.344;2022-08-01T08:20:43;5.28;;;1.88;;
12218;SDS011;6172;42.646;23.344;2022-08-01T08:23:10;3.28;;;1.27;;
12218;SDS011;6172;42.646;23.344;2022-08-01T08:25:51;3.72;;;1.80;;
12218;SDS011;6172;42.646;23.344;2022-08-01T08:28:18;2.75;;;1.38;;
12218;SDS011;6172;42.646;23.344;2022-08-01T08:30:45;4.00;;;1.42;;
12218;SDS011;6172;42.646;23.344;2022-08-01T08:33:12;6.15;;;1.60;;
12218;SDS011;6172;42.646;23.344;2022-08-01T08:35:39;1.73;;;1.52;;
12218;SDS011;6172;42.646;23.344;2022-08-01T08:38:08;11.23;;;1.90;;
12218;SDS011;6172;42.646;23.344;2022-08-01T08:40:35;1.95;;;1.45;;
12218;SDS011;6172;42.646;23.344;2022-08-01T08:43:04;3.55;;;1.23;;
12218;SDS011;6172;42.646;23.344;2022-08-01T08:45:31;3.33;;;1.25;;
12218;SDS011;6172;42.646;23.344;2022-08-01T08:47:59;1.95;;;1.33;;
12218;SDS011;6172;42.646;23.344;2022-08-01T08:50:27;3.33;;;1.35;;
12218;SDS011;6172;42.646;23.344;2022-08-01T08:52:55;7.55;;;1.60;;
12218;SDS011;6172;42.646;23.344;2022-08-01T08:55:23;3.80;;;1.63;;
12218;SDS011;6172;42.646;23.344;2022-08-01T08:57:52;3.35;;;1.38;;
12218;SDS011;6172;42.646;23.344;2022-08-01T09:00:20;2.58;;;1.30;;
12218;SDS011;6172;42.646;23.344;2022-08-01T09:02:49;4.53;;;1.10;;
12218;SDS011;6172;42.646;23.344;2022-08-01T09:05:21;3.05;;;1.38;;
12218;SDS011;6172;42.646;23.344;2022-08-01T09:07:50;1.40;;;1.30;;
12218;SDS011;6172;42.646;23.344;2022-08-01T09:10:17;1.20;;;1.10;;
12218;SDS011;6172;42.646;23.344;2022-08-01T09:13:05;1.90;;;1.17;;
12218;SDS011;6172;42.646;23.344;2022-08-01T09:15:39;3.08;;;1.30;;
12218;SDS011;6172;42.646;23.344;2022-08-01T09:18:07;4.15;;;1.27;;
12218;SDS011;6172;42.646;23.344;2022-08-01T09:20:35;2.42;;;1.15;;
12218;SDS011;6172;42.646;23.344;2022-08-01T09:23:02;2.85;;;1.10;;
12218;SDS011;6172;42.646;23.344;2022-08-01T09:25:29;2.17;;;1.10;;
12218;SDS011;6172;42.646;23.344;2022-08-01T09:28:02;1.85;;;1.30;;
12218;SDS011;6172;42.646;23.344;2022-08-01T09:30:36;4.53;;;1.50;;
12218;SDS011;6172;42.646;23.344;2022-08-01T09:33:05;1.75;;;1.42;;
12218;SDS011;6172;42.646;23.344;2022-08-01T09:35:32;3.83;;;1.02;;
12218;SDS011;6172;42.646;23.344;2022-08-01T09:38:11;1.42;;;1.10;;
12218;SDS011;6172;42.646;23.344;2022-08-01T09:40:43;3.53;;;1.50;;
12218;SDS011;6172;42.646;23.344;2022-08-01T09:43:12;1.33;;;1.27;;
12218;SDS011;6172;42.646;23.344;2022-08-01T09:45:39;1.50;;;1.40;;
12218;SDS011;6172;42.646;23.344;2022-08-01T09:48:07;2.15;;;1.30;;
12218;SDS011;6172;42.646;23.344;2022-08-01T09:50:38;1.42;;;0.90;;
12218;SDS011;6172;42.646;23.344;2022-08-01T09:53:06;1.38;;;1.02;;
12218;SDS011;6172;42.646;23.344;2022-08-01T09:55:33;1.55;;;1.38;;
12218;SDS011;6172;42.646;23.344;2022-08-01T09:58:01;2.25;;;1.40;;
12218;SDS011;6172;42.646;23.344;2022-08-01T10:00:31;3.45;;;1.33;;
12218;SDS011;6172;42.646;23.344;2022-08-01T10:02:58;3.45;;;1.33;;
12218;SDS011;6172;42.646;23.344;2022-08-01T10:05:44;4.57;;;1.60;;
12218;SDS011;6172;42.646;23.344;2022-08-01T10:08:30;1.45;;;1.30;;
12218;SDS011;6172;42.646;23.344;2022-08-01T10:11:12;2.25;;;1.30;;
12218;SDS011;6172;42.646;23.344;2022-08-01T10:13:39;1.40;;;1.13;;
12218;SDS011;6172;42.646;23.344;2022-08-01T10:16:07;1.50;;;1.40;;
12218;SDS011;6172;42.646;23.344;2022-08-01T10:18:36;2.28;;;1.25;;
12218;SDS011;6172;42.646;23.344;2022-08-01T10:21:07;3.75;;;1.65;;
12218;SDS011;6172;42.646;23.344;2022-08-01T10:23:34;2.22;;;1.40;;
12218;SDS011;6172;42.646;23.344;2022-08-01T10:26:03;1.55;;;1.45;;
12218;SDS011;6172;42.646;23.344;2022-08-01T10:28:31;2.60;;;1.60;;
12218;SDS011;6172;42.646;23.344;2022-08-01T10:31:02;3.35;;;1.73;;
12218;SDS011;6172;42.646;23.344;2022-08-01T10:33:30;2.17;;;1.27;;
12218;SDS011;6172;42.646;23.344;2022-08-01T10:35:57;4.05;;;1.17;;
12218;SDS011;6172;42.646;23.344;2022-08-01T10:38:24;2.70;;;1.58;;
12218;SDS011;6172;42.646;23.344;2022-08-01T10:40:53;2.50;;;1.25;;
12218;SDS011;6172;42.646;23.344;2022-08-01T10:43:21;6.03;;;1.77;;
12218;SDS011;6172;42.646;23.344;2022-08-01T10:45:48;3.30;;;1.38;;
12218;SDS011;6172;42.646;23.344;2022-08-01T10:48:18;4.00;;;1.60;;
12218;SDS011;6172;42.646;23.344;2022-08-01T10:50:51;2.65;;;1.10;;
12218;SDS011;6172;42.646;23.344;2022-08-01T10:53:22;4.82;;;1.63;;
12218;SDS011;6172;42.646;23.344;2022-08-01T10:55:51;3.08;;;1.30;;
12218;SDS011;6172;42.646;23.344;2022-08-01T10:58:23;3.58;;;1.50;;
12218;SDS011;6172;42.646;23.344;2022-08-01T11:03:40;1.10;;;1.00;;
12218;SDS011;6172;42.646;23.344;2022-08-01T11:06:09;2.35;;;1.20;;
12218;SDS011;6172;42.646;23.344;2022-08-01T11:08:43;3.42;;;1.15;;
12218;SDS011;6172;42.646;23.344;2022-08-01T11:11:17;2.88;;;1.20;;
12218;SDS011;6172;42.646;23.344;2022-08-01T11:14:00;9.75;;;2.08;;
12218;SDS011;6172;42.646;23.344;2022-08-01T11:16:33;1.40;;;1.30;;
12218;SDS011;6172;42.646;23.344;2022-08-01T11:19:01;1.80;;;1.30;;
12218;SDS011;6172;42.646;23.344;2022-08-01T11:27:23;2.10;;;1.25;;
12218;SDS011;6172;42.646;23.344;2022-08-01T11:32:52;1.33;;;1.20;;
12218;SDS011;6172;42.646;23.344;2022-08-01T11:35:21;2.15;;;1.38;;
12218;SDS011;6172;42.646;23.344;2022-08-01T11:37:53;1.98;;;1.42;;
12218;SDS011;6172;42.646;23.344;2022-08-01T11:40:22;5.68;;;1.52;;
12218;SDS011;6172;42.646;23.344;2022-08-01T11:45:47;7.35;;;2.10;;
12218;SDS011;6172;42.646;23.344;2022-08-01T11:48:18;9.00;;;1.70;;
12218;SDS011;6172;42.646;23.344;2022-08-01T11:50:46;4.07;;;1.13;;
12218;SDS011;6172;42.646;23.344;2022-08-01T11:53:14;1.30;;;1.17;;
12218;SDS011;6172;42.646;23.344;2022-08-01T11:55:45;1.40;;;0.95;;
12218;SDS011;6172;42.646;23.344;2022-08-01T11:58:14;3.20;;;1.30;;
12218;SDS011;6172;42.646;23.344;2022-08-01T12:00:42;2.53;;;1.65;;
12218;SDS011;6172;42.646;23.344;2022-08-01T12:03:17;3.15;;;1.55;;
12218;SDS011;6172;42.646;23.344;2022-08-01T12:05:50;2.15;;;1.25;;
12218;SDS011;6172;42.646;23.344;2022-08-01T12:08:25;1.80;;;1.42;;
12218;SDS011;6172;42.646;23.344;2022-08-01T12:10:53;4.68;;;1.30;;
12218;SDS011;6172;42.646;23.344;2022-08-01T12:13:20;3.95;;;1.25;;
12218;SDS011;6172;42.646;23.344;2022-08-01T12:15:47;2.90;;;1.50;;
12218;SDS011;6172;42.646;23.344;2022-08-01T12:18:15;2.03;;;1.40;;
12218;SDS011;6172;42.646;23.344;2022-08-01T12:20:42;1.98;;;1.70;;
12218;SDS011;6172;42.646;23.344;2022-08-01T12:23:11;1.90;;;1.77;;
12218;SDS011;6172;42.646;23.344;2022-08-01T12:25:41;6.35;;;1.52;;
12218;SDS011;6172;42.646;23.344;2022-08-01T12:28:10;1.77;;;1.40;;
12218;SDS011;6172;42.646;23.344;2022-08-01T12:30:39;2.00;;;1.52;;
12218;SDS011;6172;42.646;23.344;2022-08-01T12:33:07;1.73;;;1.63;;
12218;SDS011;6172;42.646;23.344;2022-08-01T12:35:35;3.58;;;1.40;;
12218;SDS011;6172;42.646;23.344;2022-08-01T12:38:04;2.10;;;1.25;;
12218;SDS011;6172;42.646;23.344;2022-08-01T12:40:35;1.52;;;1.15;;
12218;SDS011;6172;42.646;23.344;2022-08-01T12:43:08;1.90;;;1.27;;
12218;SDS011;6172;42.646;23.344;2022-08-01T12:45:36;3.65;;;1.60;;
12218;SDS011;6172;42.646;23.344;2022-08-01T12:48:06;1.67;;;1.60;;
12218;SDS011;6172;42.646;23.344;2022-08-01T12:50:35;2.03;;;1.73;;
12218;SDS011;6172;42.646;23.344;2022-08-01T12:53:04;1.60;;;1.50;;
12218;SDS011;6172;42.646;23.344;2022-08-01T12:55:31;1.60;;;1.50;;
12218;SDS011;6172;42.646;23.344;2022-08-01T12:58:10;1.60;;;1.48;;
12218;SDS011;6172;42.646;23.344;2022-08-01T13:00:38;2.97;;;1.60;;
12218;SDS011;6172;42.646;23.344;2022-08-01T13:03:09;2.38;;;1.40;;
12218;SDS011;6172;42.646;23.344;2022-08-01T13:05:42;2.85;;;1.75;;
12218;SDS011;6172;42.646;23.344;2022-08-01T13:08:10;1.58;;;1.58;;
12218;SDS011;6172;42.646;23.344;2022-08-01T13:10:38;3.67;;;1.50;;
12218;SDS011;6172;42.646;23.344;2022-08-01T13:13:05;2.22;;;1.55;;
12218;SDS011;6172;42.646;23.344;2022-08-01T13:15:36;2.78;;;1.40;;
12218;SDS011;6172;42.646;23.344;2022-08-01T13:20:50;1.85;;;1.75;;
12218;SDS011;6172;42.646;23.344;2022-08-01T13:23:32;1.73;;;1.33;;
12218;SDS011;6172;42.646;23.344;2022-08-01T13:25:59;1.92;;;1.80;;
12218;SDS011;6172;42.646;23.344;2022-08-01T13:28:27;4.85;;;2.17;;
12218;SDS011;6172;42.646;23.344;2022-08-01T13:30:58;2.03;;;1.83;;
12218;SDS011;6172;42.646;23.344;2022-08-01T13:33:26;1.92;;;1.45;;
12218;SDS011;6172;42.646;23.344;2022-08-01T13:35:55;1.40;;;1.40;;
12218;SDS011;6172;42.646;23.344;2022-08-01T13:38:22;1.27;;;1.17;;
12218;SDS011;6172;42.646;23.344;2022-08-01T13:41:03;2.03;;;1.80;;
12218;SDS011;6172;42.646;23.344;2022-08-01T13:43:30;1.50;;;1.40;;
12218;SDS011;6172;42.646;23.344;2022-08-01T13:45:58;1.73;;;1.33;;
12218;SDS011;6172;42.646;23.344;2022-08-01T13:48:27;3.00;;;1.42;;
12218;SDS011;6172;42.646;23.344;2022-08-01T13:50:54;2.42;;;1.65;;
12218;SDS011;6172;42.646;23.344;2022-08-01T13:53:21;2.70;;;1.50;;
12218;SDS011;6172;42.646;23.344;2022-08-01T13:55:48;1.60;;;1.23;;
12218;SDS011;6172;42.646;23.344;2022-08-01T13:58:15;1.48;;;1.38;;
12218;SDS011;6172;42.646;23.344;2022-08-01T14:00:41;1.83;;;1.73;;
12218;SDS011;6172;42.646;23.344;2022-08-01T14:03:10;1.65;;;1.50;;
12218;SDS011;6172;42.646;23.344;2022-08-01T14:05:36;1.90;;;1.48;;
12218;SDS011;6172;42.646;23.344;2022-08-01T14:08:04;2.40;;;1.60;;
12218;SDS011;6172;42.646;23.344;2022-08-01T14:10:32;2.13;;;1.60;;
12218;SDS011;6172;42.646;23.344;2022-08-01T14:12:58;1.50;;;1.40;;
12218;SDS011;6172;42.646;23.344;2022-08-01T14:15:25;1.23;;;1.23;;
12218;SDS011;6172;42.646;23.344;2022-08-01T14:17:52;1.73;;;1.42;;
12218;SDS011;6172;42.646;23.344;2022-08-01T14:20:20;1.55;;;1.45;;
12218;SDS011;6172;42.646;23.344;2022-08-01T14:22:47;1.40;;;1.30;;
12218;SDS011;6172;42.646;23.344;2022-08-01T14:25:14;1.60;;;1.50;;
12218;SDS011;6172;42.646;23.344;2022-08-01T14:27:43;2.25;;;1.50;;
12218;SDS011;6172;42.646;23.344;2022-08-01T14:30:10;1.70;;;1.10;;
12218;SDS011;6172;42.646;23.344;2022-08-01T14:32:38;2.20;;;1.50;;
12218;SDS011;6172;42.646;23.344;2022-08-01T14:35:05;1.83;;;1.73;;
12218;SDS011;6172;42.646;23.344;2022-08-01T14:37:34;2.50;;;1.40;;
12218;SDS011;6172;42.646;23.344;2022-08-01T14:40:00;1.63;;;0.90;;
12218;SDS011;6172;42.646;23.344;2022-08-01T14:42:33;3.35;;;2.00;;
12218;SDS011;6172;42.646;23.344;2022-08-01T14:45:00;2.60;;;1.42;;
12218;SDS011;6172;42.646;23.344;2022-08-01T14:47:28;2.28;;;1.48;;
12218;SDS011;6172;42.646;23.344;2022-08-01T14:49:55;3.13;;;1.60;;
12218;SDS011;6172;42.646;23.344;2022-08-01T14:52:21;1.50;;;1.40;;
12218;SDS011;6172;42.646;23.344;2022-08-01T14:54:50;2.78;;;1.38;;
12218;SDS011;6172;42.646;23.344;2022-08-01T14:57:16;1.27;;;1.17;;
12218;SDS011;6172;42.646;23.344;2022-08-01T14:59:44;1.83;;;1.73;;
12218;SDS011;6172;42.646;23.344;2022-08-01T15:02:11;1.95;;;1.52;;
12218;SDS011;6172;42.646;23.344;2022-08-01T15:04:42;1.10;;;1.10;;
12218;SDS011;6172;42.646;23.344;2022-08-01T15:07:09;1.90;;;1.17;;
12218;SDS011;6172;42.646;23.344;2022-08-01T15:09:36;1.30;;;1.20;;
12218;SDS011;6172;42.646;23.344;2022-08-01T15:12:04;2.45;;;1.20;;
12218;SDS011;6172;42.646;23.344;2022-08-01T15:14:32;1.08;;;1.08;;
12218;SDS011;6172;42.646;23.344;2022-08-01T15:17:14;2.60;;;1.00;;